createdAt,value
2023-04-16T00:00:48.326Z,8.53
2023-04-16T00:03:34.727Z,8.70
2023-04-16T00:06:03.336Z,8.69
2023-04-16T00:08:31.369Z,8.66
2023-04-16T00:10:59.091Z,8.68
2023-04-16T00:13:27.924Z,8.51
2023-04-16T00:15:55.897Z,8.63
2023-04-16T00:18:23.900Z,8.57
2023-04-16T00:20:51.832Z,8.46
2023-04-16T00:23:19.870Z,8.60
2023-04-16T00:25:47.836Z,8.68
2023-04-16T00:28:15.769Z,8.67
2023-04-16T00:30:43.615Z,8.68
2023-04-16T00:33:11.994Z,8.76
2023-04-16T00:35:39.874Z,8.75
2023-04-16T00:38:08.209Z,8.68
2023-04-16T00:40:35.830Z,8.62
2023-04-16T00:43:04.324Z,8.65
2023-04-16T00:45:32.518Z,8.56
2023-04-16T00:48:01.620Z,8.49
2023-04-16T00:50:29.643Z,8.47
2023-04-16T00:52:58.211Z,8.45
2023-04-16T00:55:26.858Z,8.47
2023-04-16T00:57:54.773Z,8.44
2023-04-16T01:00:22.615Z,8.46
2023-04-16T01:02:50.898Z,8.46
2023-04-16T01:05:20.521Z,8.50
2023-04-16T01:07:48.584Z,8.57
2023-04-16T01:10:16.267Z,8.56
2023-04-16T01:12:44.217Z,8.51
2023-04-16T01:15:11.988Z,8.52
2023-04-16T01:17:40.504Z,8.43
2023-04-16T01:20:08.443Z,8.55
2023-04-16T01:22:36.386Z,8.62
2023-04-16T01:25:04.281Z,8.52
2023-04-16T01:27:32.615Z,8.43
2023-04-16T01:30:00.216Z,8.53
2023-04-16T01:32:39.599Z,8.67
2023-04-16T01:35:07.500Z,8.63
2023-04-16T01:37:35.524Z,8.58
2023-04-16T01:40:03.287Z,8.68
2023-04-16T01:42:31.249Z,8.73
2023-04-16T01:44:58.984Z,8.66
2023-04-16T01:47:27.067Z,8.65
2023-04-16T01:49:54.857Z,8.54
2023-04-16T01:52:22.862Z,8.55
2023-04-16T01:54:50.575Z,8.58
2023-04-16T01:57:18.520Z,8.66
2023-04-16T01:59:46.210Z,8.55
2023-04-16T02:02:16.359Z,8.52
2023-04-16T02:04:46.184Z,8.55
2023-04-16T02:07:14.226Z,8.51
2023-04-16T02:09:42.185Z,8.64
2023-04-16T02:12:11.848Z,8.58
2023-04-16T02:14:39.453Z,8.65
2023-04-16T02:17:07.495Z,8.49
2023-04-16T02:19:39.548Z,8.67
2023-04-16T02:22:08.838Z,8.68
2023-04-16T02:24:36.532Z,8.57
2023-04-16T02:27:08.385Z,8.57
2023-04-16T02:29:36.492Z,8.50
2023-04-16T02:32:12.078Z,8.47
2023-04-16T02:34:43.717Z,8.62
2023-04-16T02:37:12.607Z,8.54
2023-04-16T02:39:40.824Z,8.47
2023-04-16T02:42:08.747Z,8.39
2023-04-16T02:44:37.198Z,8.48
2023-04-16T02:47:05.244Z,8.58
2023-04-16T02:49:33.046Z,8.48
2023-04-16T02:52:00.934Z,8.48
2023-04-16T02:54:28.551Z,8.48
2023-04-16T02:56:56.917Z,8.48
2023-04-16T02:59:24.512Z,8.33
2023-04-16T03:01:52.831Z,8.24
2023-04-16T03:04:20.643Z,8.28
2023-04-16T03:06:48.548Z,8.39
2023-04-16T03:09:16.267Z,8.44
2023-04-16T03:11:44.344Z,8.43
2023-04-16T03:14:12.093Z,8.27
2023-04-16T03:16:39.977Z,8.36
2023-04-16T03:19:07.933Z,8.31
2023-04-16T03:21:37.543Z,8.19
2023-04-16T03:24:05.249Z,8.12
2023-04-16T03:26:33.143Z,8.37
2023-04-16T03:29:02.194Z,8.40
2023-04-16T03:31:32.540Z,8.45
2023-04-16T03:34:00.914Z,8.49
2023-04-16T03:36:28.850Z,8.34
2023-04-16T03:38:57.436Z,8.40
2023-04-16T03:41:25.488Z,8.41
2023-04-16T03:43:53.282Z,8.41
2023-04-16T03:46:21.251Z,8.22
2023-04-16T03:48:49.511Z,8.38
2023-04-16T03:51:17.498Z,8.33
2023-04-16T03:53:45.274Z,8.34
2023-04-16T03:56:14.672Z,8.39
2023-04-16T03:58:42.668Z,8.25
2023-04-16T04:01:10.765Z,8.33
2023-04-16T04:03:39.597Z,8.37
2023-04-16T04:06:09.409Z,8.46
2023-04-16T04:08:37.457Z,8.56
2023-04-16T04:11:06.654Z,8.51
2023-04-16T04:13:35.896Z,8.41
2023-04-16T04:16:05.839Z,8.55
2023-04-16T04:18:33.573Z,8.59
2023-04-16T04:21:06.666Z,8.52
2023-04-16T04:23:35.565Z,8.66
2023-04-16T04:26:05.668Z,8.58
2023-04-16T04:28:34.273Z,8.57
2023-04-16T04:31:02.370Z,8.45
2023-04-16T04:33:31.794Z,8.53
2023-04-16T04:35:59.730Z,8.52
2023-04-16T04:38:28.270Z,8.64
2023-04-16T04:40:56.328Z,8.66
2023-04-16T04:43:25.394Z,8.72
2023-04-16T04:45:53.422Z,8.74
2023-04-16T04:48:26.248Z,8.73
2023-04-16T04:50:54.598Z,8.75
2023-04-16T04:53:22.360Z,8.84
2023-04-16T04:55:53.161Z,8.91
2023-04-16T04:58:23.340Z,8.82
2023-04-16T05:00:51.305Z,8.90
2023-04-16T05:03:22.285Z,8.89
2023-04-16T05:05:50.310Z,9.10
2023-04-16T05:08:17.970Z,9.19
2023-04-16T05:10:46.048Z,9.26
2023-04-16T05:13:13.723Z,9.22
2023-04-16T05:15:41.627Z,9.35
2023-04-16T05:18:09.839Z,9.27
2023-04-16T05:20:37.995Z,9.34
2023-04-16T05:23:05.746Z,9.39
2023-04-16T05:25:33.864Z,9.32
2023-04-16T05:28:01.803Z,9.30
2023-04-16T05:30:29.861Z,9.46
2023-04-16T05:32:57.595Z,9.41
2023-04-16T05:35:25.767Z,9.46
2023-04-16T05:37:53.395Z,9.33
2023-04-16T05:40:21.640Z,9.26
2023-04-16T05:42:49.420Z,9.36
2023-04-16T05:45:17.350Z,9.40
2023-04-16T05:47:45.311Z,9.31
2023-04-16T05:50:13.343Z,9.36
2023-04-16T05:52:40.998Z,9.23
2023-04-16T05:55:09.371Z,9.22
2023-04-16T05:57:37.030Z,9.21
2023-04-16T06:00:05.402Z,9.27
2023-04-16T06:02:40.307Z,9.36
2023-04-16T06:05:08.678Z,9.38
2023-04-16T06:07:36.397Z,9.44
2023-04-16T06:10:04.569Z,9.74
2023-04-16T06:12:32.234Z,9.59
2023-04-16T06:15:01.370Z,9.64
2023-04-16T06:17:29.119Z,9.73
2023-04-16T06:19:57.037Z,10.09
2023-04-16T06:22:25.342Z,10.35
2023-04-16T06:24:53.958Z,10.57
2023-04-16T06:27:21.555Z,10.70
2023-04-16T06:29:49.722Z,10.84
2023-04-16T06:32:17.954Z,11.15
2023-04-16T06:34:45.888Z,11.45
2023-04-16T06:37:13.549Z,11.42
2023-04-16T06:39:41.507Z,11.56
2023-04-16T06:42:09.222Z,11.60
2023-04-16T06:44:37.191Z,11.53
2023-04-16T06:47:04.926Z,11.40
2023-04-16T06:49:33.011Z,11.38
2023-04-16T06:52:00.883Z,11.38
2023-04-16T06:54:28.801Z,11.37
2023-04-16T06:56:56.488Z,11.37
2023-04-16T06:59:24.586Z,11.42
2023-04-16T07:01:53.054Z,11.51
2023-04-16T07:04:21.866Z,11.49
2023-04-16T07:06:49.650Z,11.23
2023-04-16T07:09:20.575Z,11.39
2023-04-16T07:11:48.370Z,11.48
2023-04-16T07:14:16.434Z,11.41
2023-04-16T07:16:44.132Z,11.37
2023-04-16T07:19:12.271Z,11.53
2023-04-16T07:21:42.054Z,11.30
2023-04-16T07:24:14.021Z,11.46
2023-04-16T07:26:41.737Z,11.40
2023-04-16T07:29:09.927Z,11.74
2023-04-16T07:31:38.556Z,11.82
2023-04-16T07:34:06.639Z,12.02
2023-04-16T07:36:34.360Z,11.85
2023-04-16T07:39:02.414Z,11.95
2023-04-16T07:41:30.139Z,12.28
2023-04-16T07:43:58.415Z,12.45
2023-04-16T07:46:30.458Z,12.38
2023-04-16T07:49:01.550Z,12.39
2023-04-16T07:51:29.215Z,12.31
2023-04-16T07:53:57.086Z,12.38
2023-04-16T07:56:24.817Z,12.48
2023-04-16T07:58:52.897Z,12.67
2023-04-16T08:01:21.087Z,12.54
2023-04-16T08:03:49.282Z,12.36
2023-04-16T08:06:17.038Z,12.40
2023-04-16T08:08:44.982Z,12.44
2023-04-16T08:11:12.632Z,12.47
2023-04-16T08:13:40.590Z,12.36
2023-04-16T08:16:08.381Z,12.30
2023-04-16T08:18:36.962Z,12.07
2023-04-16T08:21:04.733Z,12.32
2023-04-16T08:23:33.005Z,12.38
2023-04-16T08:26:02.265Z,12.35
2023-04-16T08:28:30.370Z,12.19
2023-04-16T08:30:58.115Z,12.21
2023-04-16T08:33:26.513Z,12.52
2023-04-16T08:35:54.121Z,12.62
2023-04-16T08:38:22.183Z,12.76
2023-04-16T08:40:49.885Z,12.93
2023-04-16T08:43:19.340Z,12.96
2023-04-16T08:45:48.984Z,12.98
2023-04-16T08:48:20.720Z,12.96
2023-04-16T08:50:52.426Z,13.13
2023-04-16T08:53:49.409Z,13.26
2023-04-16T08:56:23.019Z,13.34
2023-04-16T08:58:54.865Z,13.51
2023-04-16T09:01:24.972Z,13.81
2023-04-16T09:03:54.038Z,14.00
2023-04-16T09:06:22.307Z,14.31
2023-04-16T09:08:50.957Z,14.23
2023-04-16T09:11:19.443Z,14.37
2023-04-16T09:13:48.116Z,14.36
2023-04-16T09:16:16.189Z,14.35
2023-04-16T09:18:44.179Z,14.53
2023-04-16T09:21:12.673Z,14.66
2023-04-16T09:23:41.962Z,14.75
2023-04-16T09:26:09.602Z,14.94
2023-04-16T09:28:41.080Z,14.88
2023-04-16T09:31:19.368Z,14.53
2023-04-16T09:34:08.652Z,14.58
2023-04-16T09:36:37.165Z,14.53
2023-04-16T09:39:05.179Z,14.82
2023-04-16T09:41:39.559Z,15.08
2023-04-16T09:44:07.489Z,15.00
2023-04-16T09:46:36.895Z,15.09
2023-04-16T09:49:16.178Z,15.00
2023-04-16T09:51:45.330Z,14.97
2023-04-16T09:54:13.746Z,14.96
2023-04-16T09:56:46.405Z,15.10
2023-04-16T09:59:21.845Z,14.93
2023-04-16T10:01:50.884Z,14.96
2023-04-16T10:04:19.085Z,14.85
2023-04-16T10:07:04.700Z,14.61
2023-04-16T10:09:37.652Z,14.46
2023-04-16T10:12:06.842Z,14.80
2023-04-16T10:14:35.792Z,14.40
2023-04-16T10:17:06.223Z,14.33
2023-04-16T10:19:35.515Z,14.45
2023-04-16T10:22:03.834Z,14.53
2023-04-16T10:24:34.013Z,14.33
2023-04-16T10:27:02.608Z,14.56
2023-04-16T10:29:31.702Z,14.65
2023-04-16T10:32:01.175Z,14.50
2023-04-16T10:34:30.001Z,14.42
2023-04-16T10:36:57.653Z,14.44
2023-04-16T10:39:28.476Z,14.63
2023-04-16T10:42:09.555Z,14.77
2023-04-16T10:44:37.665Z,14.81
2023-04-16T10:47:13.027Z,15.19
2023-04-16T10:49:42.472Z,15.47
2023-04-16T10:52:12.248Z,15.79
2023-04-16T10:54:41.304Z,16.02
2023-04-16T10:57:15.102Z,16.20
2023-04-16T10:59:44.212Z,16.58
2023-04-16T11:02:17.790Z,16.70
2023-04-16T11:04:48.197Z,16.99
2023-04-16T11:07:19.608Z,17.01
2023-04-16T11:10:02.089Z,17.30
2023-04-16T11:12:30.307Z,17.24
2023-04-16T11:15:13.001Z,17.69
2023-04-16T11:17:47.636Z,18.04
2023-04-16T11:20:21.089Z,17.38
2023-04-16T11:22:50.693Z,16.84
2023-04-16T11:25:30.234Z,16.30
2023-04-16T11:28:01.404Z,16.39
2023-04-16T11:30:34.600Z,16.34
2023-04-16T11:33:06.021Z,16.79
2023-04-16T11:35:34.092Z,15.83
2023-04-16T11:38:02.320Z,16.12
2023-04-16T11:40:34.303Z,16.13
2023-04-16T11:43:04.129Z,16.54
2023-04-16T11:45:32.101Z,16.79
2023-04-16T11:47:59.908Z,16.55
2023-04-16T11:50:28.877Z,16.70
2023-04-16T11:53:03.635Z,17.02
2023-04-16T11:55:31.762Z,17.39
2023-04-16T11:58:13.090Z,17.53
2023-04-16T12:00:41.666Z,17.50
2023-04-16T12:03:10.041Z,17.32
2023-04-16T12:05:39.822Z,17.23
2023-04-16T12:08:10.026Z,17.27
2023-04-16T12:10:54.912Z,16.98
2023-04-16T12:13:23.386Z,17.16
2023-04-16T12:15:53.926Z,17.10
2023-04-16T12:18:24.032Z,17.03
2023-04-16T12:20:52.121Z,17.10
2023-04-16T12:23:28.911Z,17.21
2023-04-16T12:26:02.540Z,16.19
2023-04-16T12:28:35.962Z,16.06
2023-04-16T12:31:04.497Z,16.07
2023-04-16T12:33:32.362Z,15.90
2023-04-16T12:36:01.625Z,15.79
2023-04-16T12:38:29.930Z,15.65
2023-04-16T12:40:58.472Z,15.51
2023-04-16T12:43:26.564Z,15.57
2023-04-16T12:45:54.720Z,15.95
2023-04-16T12:48:22.402Z,15.93
2023-04-16T12:50:53.245Z,16.18
2023-04-16T12:53:20.992Z,16.16
2023-04-16T12:55:49.156Z,16.13
2023-04-16T12:58:16.801Z,16.14
2023-04-16T13:00:44.895Z,16.32
2023-04-16T13:03:12.732Z,16.37
2023-04-16T13:05:41.489Z,16.50
2023-04-16T13:08:09.233Z,16.52
2023-04-16T13:10:37.373Z,16.63
2023-04-16T13:13:05.554Z,16.73
2023-04-16T13:15:33.537Z,16.94
2023-04-16T13:18:01.862Z,17.13
2023-04-16T13:20:29.964Z,17.32
2023-04-16T13:22:57.585Z,17.53
2023-04-16T13:25:25.784Z,17.01
2023-04-16T13:27:53.496Z,16.95
2023-04-16T13:30:21.444Z,16.88
2023-04-16T13:32:49.134Z,16.86
2023-04-16T13:35:17.198Z,17.01
2023-04-16T13:37:44.979Z,17.16
2023-04-16T13:40:12.984Z,17.50
2023-04-16T13:42:40.719Z,17.50
2023-04-16T13:45:11.965Z,17.72
2023-04-16T13:47:44.625Z,17.81
2023-04-16T13:50:12.690Z,17.89
2023-04-16T13:52:40.361Z,17.88
2023-04-16T13:55:09.690Z,17.88
2023-04-16T13:57:37.483Z,17.62
2023-04-16T14:00:06.042Z,17.38
2023-04-16T14:02:33.803Z,17.31
2023-04-16T14:05:01.952Z,17.03
2023-04-16T14:07:29.727Z,16.72
2023-04-16T14:09:57.655Z,16.59
2023-04-16T14:12:25.451Z,16.35
2023-04-16T14:14:53.588Z,15.96
2023-04-16T14:17:21.323Z,16.04
2023-04-16T14:19:49.588Z,15.96
2023-04-16T14:22:18.018Z,15.97
2023-04-16T14:24:46.125Z,15.81
2023-04-16T14:27:13.765Z,16.04
2023-04-16T14:29:41.727Z,16.07
2023-04-16T14:32:09.463Z,16.22
2023-04-16T14:34:37.344Z,16.39
2023-04-16T14:37:05.705Z,16.45
2023-04-16T14:39:34.751Z,16.43
2023-04-16T14:42:03.217Z,16.60
2023-04-16T14:44:31.301Z,16.69
2023-04-16T14:46:59.276Z,16.62
2023-04-16T14:49:27.186Z,16.64
2023-04-16T14:51:54.938Z,16.66
2023-04-16T14:54:23.181Z,16.59
2023-04-16T14:56:53.518Z,16.50
2023-04-16T14:59:21.720Z,16.41
2023-04-16T15:01:49.736Z,16.49
2023-04-16T15:04:18.225Z,16.45
2023-04-16T15:06:46.581Z,16.40
2023-04-16T15:09:14.891Z,16.58
2023-04-16T15:11:42.533Z,16.51
2023-04-16T15:14:10.927Z,16.57
2023-04-16T15:16:38.871Z,16.45
2023-04-16T15:19:07.060Z,16.43
2023-04-16T15:21:34.720Z,16.17
2023-04-16T15:24:03.035Z,16.09
2023-04-16T15:26:31.348Z,16.03
2023-04-16T15:28:59.311Z,16.03
2023-04-16T15:31:27.191Z,15.86
2023-04-16T15:33:56.229Z,15.85
2023-04-16T15:36:24.024Z,15.78
2023-04-16T15:38:51.970Z,16.05
2023-04-16T15:41:19.751Z,16.06
2023-04-16T15:43:47.781Z,15.92
2023-04-16T15:46:15.651Z,15.73
2023-04-16T15:48:43.595Z,15.60
2023-04-16T15:51:11.592Z,15.31
2023-04-16T15:53:39.663Z,15.42
2023-04-16T15:56:07.402Z,15.30
2023-04-16T15:58:35.377Z,15.23
2023-04-16T16:01:03.098Z,15.07
2023-04-16T16:03:33.103Z,14.85
2023-04-16T16:06:03.960Z,14.62
2023-04-16T16:08:35.394Z,14.30
2023-04-16T16:11:03.348Z,14.18
2023-04-16T16:13:31.559Z,14.41
2023-04-16T16:15:59.376Z,14.37
2023-04-16T16:18:27.576Z,14.36
2023-04-16T16:20:57.921Z,14.40
2023-04-16T16:23:27.126Z,14.50
2023-04-16T16:25:55.385Z,14.62
2023-04-16T16:28:25.124Z,14.57
2023-04-16T16:30:55.818Z,14.39
2023-04-16T16:33:23.822Z,14.38
2023-04-16T16:35:51.608Z,14.47
2023-04-16T16:38:19.884Z,14.41
2023-04-16T16:40:47.742Z,14.21
2023-04-16T16:43:16.346Z,14.14
2023-04-16T16:45:44.316Z,14.23
2023-04-16T16:48:12.439Z,14.11
2023-04-16T16:50:40.273Z,14.11
2023-04-16T16:53:08.257Z,13.99
2023-04-16T16:55:36.108Z,13.97
2023-04-16T16:58:04.217Z,13.73
2023-04-16T17:00:31.900Z,13.55
2023-04-16T17:02:59.998Z,13.47
2023-04-16T17:05:27.877Z,13.46
2023-04-16T17:07:55.966Z,13.51
2023-04-16T17:10:23.628Z,13.40
2023-04-16T17:12:51.939Z,13.40
2023-04-16T17:15:21.788Z,13.23
2023-04-16T17:17:50.215Z,13.07
2023-04-16T17:20:18.155Z,12.94
2023-04-16T17:22:46.209Z,12.95
2023-04-16T17:25:14.167Z,12.75
2023-04-16T17:27:42.182Z,12.48
2023-04-16T17:30:10.211Z,12.41
2023-04-16T17:32:38.200Z,12.30
2023-04-16T17:35:06.932Z,12.01
2023-04-16T17:37:34.913Z,11.91
2023-04-16T17:40:07.428Z,11.79
2023-04-16T17:42:36.250Z,11.77
2023-04-16T17:45:04.403Z,11.73
2023-04-16T17:47:34.330Z,11.69
2023-04-16T17:50:02.509Z,11.51
2023-04-16T17:52:30.597Z,11.54
2023-04-16T17:55:01.473Z,11.36
2023-04-16T17:57:30.136Z,11.21
2023-04-16T17:59:58.211Z,11.21
2023-04-16T18:02:26.498Z,11.18
2023-04-16T18:04:54.649Z,11.07
2023-04-16T18:07:22.635Z,11.06
2023-04-16T18:09:50.328Z,10.89
2023-04-16T18:12:18.276Z,10.88
2023-04-16T18:14:46.216Z,10.82
2023-04-16T18:17:14.218Z,10.71
2023-04-16T18:19:43.757Z,10.77
2023-04-16T18:22:13.291Z,10.74
2023-04-16T18:24:41.217Z,10.66
2023-04-16T18:27:09.325Z,10.67
2023-04-16T18:29:38.926Z,10.61
2023-04-16T18:32:11.726Z,10.57
2023-04-16T18:34:40.193Z,10.57
2023-04-16T18:37:08.208Z,10.51
2023-04-16T18:39:36.889Z,10.53
2023-04-16T18:42:05.246Z,10.40
2023-04-16T18:44:32.963Z,10.39
2023-04-16T18:47:01.033Z,10.37
2023-04-16T18:49:28.920Z,10.31
2023-04-16T18:51:57.157Z,10.26
2023-04-16T18:54:24.831Z,10.24
2023-04-16T18:56:52.796Z,10.07
2023-04-16T18:59:20.397Z,10.10
2023-04-16T19:01:48.428Z,10.13
2023-04-16T19:04:16.178Z,10.09
2023-04-16T19:06:45.000Z,10.23
2023-04-16T19:09:13.114Z,10.17
2023-04-16T19:11:41.575Z,10.18
2023-04-16T19:14:09.517Z,10.17
2023-04-16T19:16:38.946Z,10.20
2023-04-16T19:19:06.623Z,10.31
2023-04-16T19:21:35.532Z,10.23
2023-04-16T19:24:03.334Z,10.27
2023-04-16T19:26:31.504Z,10.25
2023-04-16T19:28:59.569Z,10.36
2023-04-16T19:31:27.907Z,10.34
2023-04-16T19:33:55.639Z,10.20
2023-04-16T19:36:23.592Z,10.27
2023-04-16T19:38:51.430Z,10.28
2023-04-16T19:41:19.372Z,10.28
2023-04-16T19:43:47.146Z,10.21
2023-04-16T19:46:15.563Z,10.26
2023-04-16T19:48:43.428Z,10.11
2023-04-16T19:51:11.324Z,10.16
2023-04-16T19:53:39.043Z,10.19
2023-04-16T19:56:06.974Z,10.07
2023-04-16T19:58:34.741Z,10.13
2023-04-16T20:01:08.025Z,10.09
2023-04-16T20:03:35.844Z,10.03
2023-04-16T20:06:05.450Z,9.97
2023-04-16T20:08:33.127Z,10.01
2023-04-16T20:11:01.254Z,10.07
2023-04-16T20:13:28.919Z,10.08
2023-04-16T20:15:57.542Z,10.05
2023-04-16T20:18:28.272Z,10.07
2023-04-16T20:20:56.411Z,10.02
2023-04-16T20:23:24.032Z,10.06
2023-04-16T20:25:52.382Z,10.00
2023-04-16T20:28:21.546Z,10.12
2023-04-16T20:30:50.925Z,9.95
2023-04-16T20:33:18.736Z,9.85
2023-04-16T20:35:46.914Z,9.82
2023-04-16T20:38:14.950Z,9.73
2023-04-16T20:40:44.671Z,9.69
2023-04-16T20:43:14.395Z,9.63
2023-04-16T20:45:45.921Z,9.61
2023-04-16T20:48:13.686Z,9.54
2023-04-16T20:50:41.853Z,9.46
2023-04-16T20:53:09.560Z,9.54
2023-04-16T20:55:37.472Z,9.54
2023-04-16T20:58:05.112Z,9.59
2023-04-16T21:00:33.063Z,9.42
2023-04-16T21:03:01.048Z,9.43
2023-04-16T21:05:30.087Z,9.44
2023-04-16T21:07:57.810Z,9.42
2023-04-16T21:10:26.092Z,9.38
2023-04-16T21:12:53.736Z,9.20
2023-04-16T21:15:21.816Z,9.22
2023-04-16T21:17:49.907Z,9.11
2023-04-16T21:20:18.058Z,9.26
2023-04-16T21:22:45.766Z,9.21
2023-04-16T21:25:13.706Z,9.28
2023-04-16T21:27:41.670Z,9.41
2023-04-16T21:30:10.169Z,9.36
2023-04-16T21:32:38.127Z,9.21
2023-04-16T21:35:06.861Z,9.28
2023-04-16T21:37:34.576Z,9.19
2023-04-16T21:40:04.940Z,9.15
2023-04-16T21:42:33.401Z,8.97
2023-04-16T21:45:01.359Z,9.16
2023-04-16T21:47:29.019Z,9.14
2023-04-16T21:49:57.029Z,9.12
2023-04-16T21:52:24.866Z,9.27
2023-04-16T21:54:52.942Z,9.18
2023-04-16T21:57:20.787Z,9.31
2023-04-16T21:59:48.807Z,9.36
2023-04-16T22:02:16.668Z,9.24
2023-04-16T22:04:44.698Z,9.29
2023-04-16T22:07:12.437Z,9.33
2023-04-16T22:09:40.883Z,9.30
2023-04-16T22:12:11.454Z,9.20
2023-04-16T22:14:46.181Z,9.24
2023-04-16T22:17:23.817Z,9.22
2023-04-16T22:19:53.536Z,9.20
2023-04-16T22:22:21.881Z,9.43
2023-04-16T22:24:50.042Z,9.40
2023-04-16T22:27:17.847Z,9.37
2023-04-16T22:29:46.121Z,9.44
2023-04-16T22:32:13.824Z,9.36
2023-04-16T22:34:41.745Z,9.43
2023-04-16T22:37:09.473Z,9.33
2023-04-16T22:39:37.408Z,9.34
2023-04-16T22:42:05.170Z,9.22
2023-04-16T22:44:33.014Z,9.22
2023-04-16T22:47:00.671Z,9.37
2023-04-16T22:49:33.109Z,9.38
2023-04-16T22:52:00.968Z,9.41
2023-04-16T22:54:33.167Z,9.28
2023-04-16T22:57:01.126Z,9.33
2023-04-16T22:59:29.145Z,9.10
2023-04-16T23:01:56.935Z,9.24
2023-04-16T23:04:24.927Z,9.29
2023-04-16T23:06:52.632Z,9.21
2023-04-16T23:09:22.443Z,9.17
2023-04-16T23:11:50.254Z,9.09
2023-04-16T23:14:18.669Z,8.94
2023-04-16T23:16:46.467Z,8.80
2023-04-16T23:19:15.699Z,8.66
2023-04-16T23:21:43.341Z,8.58
2023-04-16T23:24:11.391Z,8.47
2023-04-16T23:26:39.008Z,8.42
2023-04-16T23:29:07.569Z,8.31
2023-04-16T23:31:35.277Z,8.18
2023-04-16T23:34:03.515Z,8.27
2023-04-16T23:36:31.548Z,8.52
2023-04-16T23:38:59.528Z,8.79
2023-04-16T23:41:27.237Z,8.87
2023-04-16T23:43:55.221Z,8.61
2023-04-16T23:46:22.853Z,8.69
2023-04-16T23:48:50.887Z,8.91
2023-04-16T23:51:18.573Z,8.84
2023-04-16T23:53:46.490Z,8.70
2023-04-16T23:56:15.471Z,8.83
2023-04-16T23:58:43.550Z,8.80
